LFBI

Poitiers-Biard Airport

Airport
ICAO code
LFBI
IATA Code
PIS
Summary
ICAO Region
EUR
ICAO Territory
Location

, Poitou-Charentes

Serving
Poitiers
Elevation
423 ft
Coordinates
46° 35' 16" N , 0° 18' 24" E
Metar
LFBI 160700Z AUTO 28008KT CAVOK 08/05 Q1019 NOSIG

Runways

Designator Length Width Surface Rops
3/21 2350 45 ASP Yes/Yes

Airport map

Aerial View

SKYbrary Partners:

Safety knowledge contributed by: